Time;durP1;ratioP1;P1;durP2;ratioP2;P2;SDS_P1;SDS_P2;PMS_P1;PMS_P2;Temp;Humidity;BMP_temperature;BMP_pressure;BME280_temperature;BME280_humidity;BME280_pressure;Samples;Min_cycle;Max_cycle;Signal;HPM_P1;HPM_P2
2022/04/17 00:02:24;;;;;;;0.00;0.00;;;;;;;;;;5111338;28;20046;-77
2022/04/17 00:04:50;;;;;;;0.00;0.00;;;;;;;;;;5106947;28;20489;-77
2022/04/17 00:07:17;;;;;;;0.00;0.00;;;;;;;;;;5080114;28;20031;-78
2022/04/17 00:09:43;;;;;;;0.00;0.00;;;;;;;;;;5096865;28;20034;-78
2022/04/17 00:12:11;;;;;;;0.00;0.00;;;;;;;;;;5095358;28;20390;-79
2022/04/17 00:14:39;;;;;;;0.00;0.00;;;;;;;;;;5090583;28;20048;-78
2022/04/17 00:17:07;;;;;;;0.00;0.00;;;;;;;;;;5080489;28;20497;-78
2022/04/17 00:19:33;;;;;;;0.10;0.10;;;;;;;;;;5082975;28;20085;-77
2022/04/17 00:22:00;;;;;;;0.00;0.00;;;;;;;;;;5078820;28;20020;-78
2022/04/17 00:24:27;;;;;;;0.00;0.00;;;;;;;;;;5100740;28;20382;-78
2022/04/17 00:26:53;;;;;;;0.10;0.10;;;;;;;;;;5099240;28;20093;-78
2022/04/17 00:29:19;;;;;;;0.00;0.00;;;;;;;;;;5097416;28;20034;-77
2022/04/17 00:31:47;;;;;;;0.00;0.00;;;;;;;;;;5085390;28;20093;-78
2022/04/17 00:34:13;;;;;;;0.00;0.00;;;;;;;;;;5097410;28;20089;-77
2022/04/17 00:36:39;;;;;;;0.00;0.00;;;;;;;;;;5099961;28;20019;-78
2022/04/17 00:39:06;;;;;;;0.00;0.00;;;;;;;;;;5079921;28;20156;-78
2022/04/17 00:41:32;;;;;;;0.00;0.00;;;;;;;;;;5102080;28;20077;-77
2022/04/17 00:43:58;;;;;;;0.00;0.00;;;;;;;;;;5108850;28;20078;-77
2022/04/17 00:46:25;;;;;;;0.00;0.00;;;;;;;;;;5102344;28;20381;-76
2022/04/17 00:48:51;;;;;;;0.00;0.00;;;;;;;;;;5079155;28;20073;-77
2022/04/17 00:51:18;;;;;;;0.00;0.00;;;;;;;;;;5096429;28;20016;-77
2022/04/17 00:53:45;;;;;;;0.00;0.00;;;;;;;;;;5089476;28;20035;-75
2022/04/17 00:56:12;;;;;;;0.00;0.00;;;;;;;;;;5088771;28;20035;-77
2022/04/17 00:58:39;;;;;;;0.00;0.00;;;;;;;;;;5089329;28;20029;-75
2022/04/17 01:01:05;;;;;;;0.00;0.00;;;;;;;;;;5097871;28;20031;-77
2022/04/17 01:03:32;;;;;;;0.00;0.00;;;;;;;;;;5081090;28;20028;-77
2022/04/17 01:06:01;;;;;;;0.00;0.00;;;;;;;;;;5109895;28;20028;-77
2022/04/17 01:08:27;;;;;;;0.00;0.00;;;;;;;;;;5093864;28;20032;-77
2022/04/17 01:10:54;;;;;;;0.00;0.00;;;;;;;;;;5106359;28;20043;-77
2022/04/17 01:13:20;;;;;;;0.00;0.00;;;;;;;;;;5089445;28;20139;-78
2022/04/17 01:15:47;;;;;;;0.00;0.00;;;;;;;;;;5093201;28;20042;-78
2022/04/17 01:18:14;;;;;;;0.00;0.00;;;;;;;;;;5103644;28;20027;-77
2022/04/17 01:20:41;;;;;;;0.00;0.00;;;;;;;;;;5108328;28;20123;-77
2022/04/17 01:28:39;;;;;;;0.00;0.00;;;;;;;;;;5093782;28;20039;-78
2022/04/17 01:31:05;;;;;;;0.00;0.00;;;;;;;;;;5106907;28;20051;-78
2022/04/17 01:33:31;;;;;;;0.00;0.00;;;;;;;;;;5111244;28;20073;-78
2022/04/17 01:35:58;;;;;;;0.00;0.00;;;;;;;;;;5093820;28;20112;-78
2022/04/17 01:38:24;;;;;;;0.00;0.00;;;;;;;;;;5102370;28;20067;-78
2022/04/17 01:40:50;;;;;;;0.00;0.00;;;;;;;;;;5106182;28;20027;-78
2022/04/17 01:43:17;;;;;;;0.05;0.05;;;;;;;;;;5100136;28;20031;-78
2022/04/17 01:45:43;;;;;;;0.40;0.40;;;;;;;;;;5113022;28;20040;-78
2022/04/17 01:48:09;;;;;;;0.00;0.00;;;;;;;;;;5093112;28;20024;-77
2022/04/17 01:50:36;;;;;;;0.00;0.00;;;;;;;;;;5093525;28;20068;-77
2022/04/17 01:53:03;;;;;;;0.00;0.00;;;;;;;;;;5098528;28;20053;-77
2022/04/17 01:55:31;;;;;;;0.00;0.00;;;;;;;;;;5091506;28;20539;-77
2022/04/17 01:57:57;;;;;;;0.00;0.00;;;;;;;;;;5092660;28;20059;-77
2022/04/17 02:00:25;;;;;;;0.00;0.00;;;;;;;;;;5093745;28;20123;-78
2022/04/17 02:02:52;;;;;;;0.00;0.00;;;;;;;;;;5103280;28;20055;-77
2022/04/17 02:05:18;;;;;;;0.00;0.00;;;;;;;;;;5103258;28;20402;-77
2022/04/17 02:07:44;;;;;;;0.17;0.17;;;;;;;;;;5103907;28;20020;-76
2022/04/17 02:10:16;;;;;;;0.00;0.00;;;;;;;;;;5086523;28;20032;-76
2022/04/17 02:12:43;;;;;;;0.00;0.00;;;;;;;;;;5098938;28;20048;-76
2022/04/17 02:15:09;;;;;;;0.00;0.00;;;;;;;;;;5093134;28;20464;-77
2022/04/17 02:17:36;;;;;;;0.00;0.00;;;;;;;;;;5113792;28;20035;-78
2022/04/17 02:20:02;;;;;;;1.95;1.75;;;;;;;;;;5112090;28;20031;-77
2022/04/17 02:22:30;;;;;;;0.35;0.35;;;;;;;;;;5086820;28;20070;-78
2022/04/17 02:24:57;;;;;;;0.00;0.00;;;;;;;;;;5096459;28;20433;-78
2022/04/17 02:27:23;;;;;;;0.00;0.00;;;;;;;;;;5100248;28;20028;-79
2022/04/17 02:29:49;;;;;;;0.00;0.00;;;;;;;;;;5105127;28;20028;-78
2022/04/17 02:32:16;;;;;;;0.00;0.00;;;;;;;;;;5094692;28;20038;-77
2022/04/17 02:34:42;;;;;;;0.00;0.00;;;;;;;;;;5106091;28;20046;-76
2022/04/17 02:37:09;;;;;;;0.00;0.00;;;;;;;;;;5091605;28;20016;-78
2022/04/17 02:39:37;;;;;;;0.00;0.00;;;;;;;;;;5075034;28;20043;-78
2022/04/17 02:42:04;;;;;;;0.10;0.10;;;;;;;;;;5096158;28;20028;-79
2022/04/17 02:44:30;;;;;;;0.00;0.00;;;;;;;;;;5098108;28;20114;-79
2022/04/17 02:49:42;;;;;;;0.00;0.00;;;;;;;;;;5106202;28;20412;-78
2022/04/17 02:52:09;;;;;;;5.75;1.52;;;;;;;;;;5093377;28;20028;-80
2022/04/17 02:54:41;;;;;;;3.53;2.33;;;;;;;;;;5104970;28;20074;-77
2022/04/17 02:57:08;;;;;;;1.83;0.68;;;;;;;;;;5092263;28;20078;-77
2022/04/17 02:59:34;;;;;;;0.30;0.30;;;;;;;;;;5078842;28;20027;-77
2022/04/17 03:07:32;;;;;;;0.00;0.00;;;;;;;;;;5104284;28;20038;-76
2022/04/17 03:09:58;;;;;;;0.90;0.90;;;;;;;;;;5098307;28;20024;-77
2022/04/17 03:12:24;;;;;;;0.77;0.47;;;;;;;;;;5086272;28;20039;-77
2022/04/17 03:14:51;;;;;;;1.60;0.90;;;;;;;;;;5095711;28;20032;-77
2022/04/17 03:17:17;;;;;;;0.70;0.70;;;;;;;;;;5094498;28;20028;-77
2022/04/17 03:19:44;;;;;;;0.20;0.20;;;;;;;;;;5102009;28;20023;-77
2022/04/17 03:22:10;;;;;;;2.63;2.30;;;;;;;;;;5093185;28;20039;-77
2022/04/17 03:24:37;;;;;;;2.13;1.92;;;;;;;;;;5096320;28;20028;-76
2022/04/17 03:27:03;;;;;;;3.33;3.03;;;;;;;;;;5104958;28;20039;-77
2022/04/17 03:29:30;;;;;;;0.80;0.40;;;;;;;;;;5099702;28;20020;-76
2022/04/17 03:31:56;;;;;;;17.52;1.08;;;;;;;;;;5103041;28;20031;-77
2022/04/17 03:34:23;;;;;;;1.98;1.08;;;;;;;;;;5095701;28;20466;-77
2022/04/17 03:36:49;;;;;;;2.00;0.52;;;;;;;;;;5093792;28;20036;-77
2022/04/17 03:39:16;;;;;;;3.63;3.42;;;;;;;;;;5080313;28;20081;-77
2022/04/17 03:41:42;;;;;;;0.00;0.00;;;;;;;;;;5102009;28;20100;-78
2022/04/17 03:44:08;;;;;;;0.50;0.15;;;;;;;;;;5105389;28;20417;-77
2022/04/17 03:46:35;;;;;;;0.00;0.00;;;;;;;;;;5110722;28;20026;-77
2022/04/17 03:49:01;;;;;;;25.13;1.98;;;;;;;;;;5110683;28;20023;-76
2022/04/17 03:51:27;;;;;;;0.77;0.40;;;;;;;;;;5094465;28;20028;-77
2022/04/17 03:53:54;;;;;;;2.47;0.65;;;;;;;;;;5096905;28;20408;-77
2022/04/17 03:56:20;;;;;;;1.10;0.70;;;;;;;;;;5100982;28;20092;-76
2022/04/17 03:58:46;;;;;;;0.32;0.32;;;;;;;;;;5102588;28;20035;-76
2022/04/17 04:01:13;;;;;;;12.10;11.07;;;;;;;;;;5101230;28;20038;-76
2022/04/17 04:03:39;;;;;;;0.10;0.10;;;;;;;;;;5092863;28;20024;-77
2022/04/17 04:06:06;;;;;;;1.75;1.23;;;;;;;;;;5099867;28;20020;-77
2022/04/17 04:08:33;;;;;;;1.30;1.23;;;;;;;;;;5103418;28;20521;-76
2022/04/17 04:11:00;;;;;;;10.18;2.83;;;;;;;;;;5081321;28;20398;-76
2022/04/17 04:13:35;;;;;;;5.95;0.45;;;;;;;;;;5104438;28;20041;-79
2022/04/17 04:16:02;;;;;;;7.97;0.85;;;;;;;;;;5100173;28;20024;-81
2022/04/17 04:18:29;;;;;;;0.10;0.10;;;;;;;;;;5095774;28;20051;-80
2022/04/17 04:20:56;;;;;;;1.23;0.93;;;;;;;;;;5106604;28;20031;-81
2022/04/17 04:23:22;;;;;;;4.47;0.70;;;;;;;;;;5081586;28;20032;-80
2022/04/17 04:25:48;;;;;;;5.22;0.70;;;;;;;;;;5084567;28;20031;-81
2022/04/17 04:28:36;;;;;;;7.07;2.42;;;;;;;;;;5099692;28;20103;-82
2022/04/17 04:31:11;;;;;;;2.22;2.08;;;;;;;;;;5095540;28;20028;-81
2022/04/17 04:33:39;;;;;;;3.10;1.10;;;;;;;;;;5080251;28;20028;-84
2022/04/17 04:36:06;;;;;;;2.88;1.30;;;;;;;;;;5075246;28;20111;-81
2022/04/17 04:38:33;;;;;;;1.98;1.33;;;;;;;;;;5081831;28;20034;-84
2022/04/17 04:40:59;;;;;;;0.70;0.30;;;;;;;;;;5100516;28;20473;-83
2022/04/17 04:43:26;;;;;;;1.75;1.33;;;;;;;;;;5082410;28;20038;-85
2022/04/17 04:46:08;;;;;;;0.57;0.40;;;;;;;;;;5118968;28;20042;-86
2022/04/17 04:51:25;;;;;;;1.90;1.80;;;;;;;;;;5098694;28;20040;-85
2022/04/17 04:53:51;;;;;;;0.93;0.93;;;;;;;;;;5096437;28;20122;-83
2022/04/17 04:56:18;;;;;;;0.10;0.10;;;;;;;;;;5085145;28;20032;-84
2022/04/17 04:58:45;;;;;;;2.03;1.80;;;;;;;;;;5101113;28;20027;-84
2022/04/17 05:01:12;;;;;;;2.28;0.90;;;;;;;;;;5097775;28;20052;-83
2022/04/17 05:03:39;;;;;;;0.93;0.90;;;;;;;;;;5083947;28;20030;-84
2022/04/17 05:06:07;;;;;;;0.22;0.17;;;;;;;;;;5099775;28;20517;-80
2022/04/17 05:08:34;;;;;;;2.40;0.40;;;;;;;;;;5099569;28;20412;-79
2022/04/17 05:11:00;;;;;;;1.45;1.13;;;;;;;;;;5102738;28;20138;-76
2022/04/17 05:13:27;;;;;;;4.57;2.60;;;;;;;;;;5096199;28;20100;-77
2022/04/17 05:15:53;;;;;;;2.08;2.00;;;;;;;;;;5096470;28;20047;-75
2022/04/17 05:18:20;;;;;;;2.53;2.38;;;;;;;;;;5076564;28;20122;-77
2022/04/17 05:20:46;;;;;;;1.48;1.25;;;;;;;;;;5099911;28;20027;-78
2022/04/17 05:23:19;;;;;;;6.93;1.67;;;;;;;;;;5096839;28;20038;-77
2022/04/17 05:25:49;;;;;;;3.50;1.23;;;;;;;;;;5099249;28;20076;-79
2022/04/17 05:28:16;;;;;;;5.22;0.25;;;;;;;;;;5097016;28;20024;-77
2022/04/17 05:30:42;;;;;;;4.18;1.80;;;;;;;;;;5097894;28;20112;-76
2022/04/17 05:33:09;;;;;;;4.30;3.92;;;;;;;;;;5081636;28;20044;-78
2022/04/17 05:35:35;;;;;;;5.57;3.83;;;;;;;;;;5097990;28;20032;-77
2022/04/17 05:38:02;;;;;;;3.25;2.20;;;;;;;;;;5098953;28;20023;-78
2022/04/17 05:40:29;;;;;;;13.18;1.70;;;;;;;;;;5103729;28;20142;-75
2022/04/17 05:42:56;;;;;;;9.45;1.88;;;;;;;;;;5084758;28;20444;-75
2022/04/17 05:45:23;;;;;;;0.35;0.10;;;;;;;;;;5107618;28;20063;-77
2022/04/17 05:47:49;;;;;;;6.95;2.38;;;;;;;;;;5101748;28;20123;-78
2022/04/17 05:50:16;;;;;;;3.55;1.13;;;;;;;;;;5099546;28;20408;-77
2022/04/17 05:52:42;;;;;;;11.70;0.73;;;;;;;;;;5099499;28;20386;-77
2022/04/17 05:55:11;;;;;;;5.88;1.27;;;;;;;;;;5082345;28;20225;-76
2022/04/17 05:57:38;;;;;;;0.00;0.00;;;;;;;;;;5102348;28;20079;-78
2022/04/17 06:00:08;;;;;;;4.97;3.28;;;;;;;;;;5100348;28;20043;-76
2022/04/17 06:02:35;;;;;;;0.68;0.43;;;;;;;;;;5082575;28;20584;-76
2022/04/17 06:05:05;;;;;;;0.32;0.32;;;;;;;;;;5084466;28;20047;-77
2022/04/17 06:07:31;;;;;;;0.00;0.00;;;;;;;;;;5098659;28;20092;-76
2022/04/17 06:10:04;;;;;;;0.00;0.00;;;;;;;;;;5105796;28;20032;-77
2022/04/17 06:12:30;;;;;;;4.80;1.95;;;;;;;;;;5101834;28;20150;-77
2022/04/17 06:14:57;;;;;;;0.10;0.10;;;;;;;;;;5103724;28;20031;-76
2022/04/17 06:17:23;;;;;;;0.20;0.10;;;;;;;;;;5099971;28;20028;-76
2022/04/17 06:19:50;;;;;;;1.42;0.70;;;;;;;;;;5081985;28;20038;-77
2022/04/17 06:22:17;;;;;;;1.13;0.63;;;;;;;;;;5100015;28;20030;-77
2022/04/17 06:24:44;;;;;;;1.30;0.73;;;;;;;;;;5103616;28;20364;-77
2022/04/17 06:27:10;;;;;;;1.58;1.10;;;;;;;;;;5099248;28;20194;-77
2022/04/17 06:29:37;;;;;;;1.17;0.73;;;;;;;;;;5102618;28;20071;-77
2022/04/17 06:32:03;;;;;;;0.32;0.20;;;;;;;;;;5106808;28;20080;-80
2022/04/17 06:34:30;;;;;;;1.65;0.40;;;;;;;;;;5101834;28;20027;-79
2022/04/17 06:36:56;;;;;;;0.32;0.32;;;;;;;;;;5097885;28;20028;-79
2022/04/17 06:39:23;;;;;;;0.00;0.00;;;;;;;;;;5086388;28;20063;-79
2022/04/17 06:41:50;;;;;;;4.10;1.85;;;;;;;;;;5096746;28;20032;-79
2022/04/17 06:44:16;;;;;;;1.88;0.90;;;;;;;;;;5096782;28;20030;-80
2022/04/17 06:46:43;;;;;;;2.28;1.88;;;;;;;;;;5096939;28;20028;-80
2022/04/17 06:49:09;;;;;;;1.33;0.98;;;;;;;;;;5094388;28;20024;-80
2022/04/17 06:51:36;;;;;;;2.33;1.50;;;;;;;;;;5087001;28;20023;-80
2022/04/17 06:54:02;;;;;;;5.72;0.75;;;;;;;;;;5101535;28;20054;-80
2022/04/17 06:56:28;;;;;;;1.77;0.98;;;;;;;;;;5100453;28;20020;-80
2022/04/17 06:58:55;;;;;;;0.00;0.00;;;;;;;;;;5085321;28;20051;-81
2022/04/17 07:01:23;;;;;;;1.98;1.10;;;;;;;;;;5098012;28;20028;-80
2022/04/17 07:03:49;;;;;;;1.88;1.60;;;;;;;;;;5100852;28;20089;-80
2022/04/17 07:06:18;;;;;;;3.00;0.85;;;;;;;;;;5102002;28;20024;-80
2022/04/17 07:08:45;;;;;;;4.25;0.93;;;;;;;;;;5106303;28;20144;-81
2022/04/17 07:11:11;;;;;;;0.43;0.35;;;;;;;;;;5094428;28;20088;-81
2022/04/17 07:13:39;;;;;;;0.00;0.00;;;;;;;;;;5083743;28;20066;-82
2022/04/17 07:16:07;;;;;;;0.00;0.00;;;;;;;;;;5101383;28;20028;-81
2022/04/17 07:18:34;;;;;;;0.00;0.00;;;;;;;;;;5098028;28;20032;-81
2022/04/17 07:21:01;;;;;;;0.00;0.00;;;;;;;;;;5095290;28;20031;-82
2022/04/17 07:23:27;;;;;;;0.00;0.00;;;;;;;;;;5122232;28;20028;-80
2022/04/17 07:25:54;;;;;;;0.00;0.00;;;;;;;;;;5080228;28;20027;-80
2022/04/17 07:28:20;;;;;;;0.00;0.00;;;;;;;;;;5096993;28;20024;-81
2022/04/17 07:30:46;;;;;;;0.93;0.52;;;;;;;;;;5083870;28;20123;-80
2022/04/17 07:33:14;;;;;;;0.08;0.08;;;;;;;;;;5077618;28;20096;-80
2022/04/17 07:35:41;;;;;;;3.28;0.80;;;;;;;;;;5099810;28;20240;-81
2022/04/17 07:38:16;;;;;;;5.07;4.13;;;;;;;;;;5101479;28;20093;-80
2022/04/17 07:40:45;;;;;;;0.00;0.00;;;;;;;;;;5075281;28;20059;-80
2022/04/17 07:43:11;;;;;;;0.00;0.00;;;;;;;;;;5091573;28;20139;-81
2022/04/17 07:45:37;;;;;;;0.20;0.20;;;;;;;;;;5079878;28;20031;-81
2022/04/17 07:48:07;;;;;;;1.95;0.65;;;;;;;;;;5101668;28;20074;-81
2022/04/17 07:50:33;;;;;;;0.75;0.38;;;;;;;;;;5077666;28;20111;-79
2022/04/17 07:53:00;;;;;;;0.08;0.03;;;;;;;;;;5079405;28;20445;-81
2022/04/17 07:55:27;;;;;;;0.00;0.00;;;;;;;;;;5097741;28;20027;-80
2022/04/17 07:58:05;;;;;;;0.80;0.80;;;;;;;;;;5073768;28;20039;-80
2022/04/17 08:00:44;;;;;;;0.32;0.32;;;;;;;;;;5095353;28;20471;-81
2022/04/17 08:03:21;;;;;;;0.43;0.43;;;;;;;;;;5101614;28;20031;-80
2022/04/17 08:05:48;;;;;;;0.98;0.50;;;;;;;;;;5075554;28;20399;-80
2022/04/17 08:08:14;;;;;;;0.00;0.00;;;;;;;;;;5076019;28;20215;-80
2022/04/17 08:10:41;;;;;;;0.50;0.50;;;;;;;;;;5077375;28;20119;-80
2022/04/17 08:13:07;;;;;;;4.47;4.18;;;;;;;;;;5102091;28;20105;-81
2022/04/17 08:15:34;;;;;;;0.20;0.20;;;;;;;;;;5079748;28;20021;-80
2022/04/17 08:18:00;;;;;;;5.40;1.30;;;;;;;;;;5100347;28;20020;-81
2022/04/17 08:20:27;;;;;;;1.85;1.35;;;;;;;;;;5101918;28;20316;-80
2022/04/17 08:22:53;;;;;;;3.55;0.93;;;;;;;;;;5106375;28;20024;-80
2022/04/17 08:25:19;;;;;;;2.00;1.33;;;;;;;;;;5105327;28;20446;-80
2022/04/17 08:27:46;;;;;;;6.35;1.50;;;;;;;;;;5094079;28;20114;-80
2022/04/17 08:30:13;;;;;;;2.58;2.10;;;;;;;;;;5079673;28;20071;-81
2022/04/17 08:32:40;;;;;;;14.07;10.45;;;;;;;;;;5102378;28;20103;-80
2022/04/17 08:35:07;;;;;;;0.65;0.65;;;;;;;;;;5078903;28;20032;-80
2022/04/17 08:37:33;;;;;;;0.00;0.00;;;;;;;;;;5095197;28;20047;-80
2022/04/17 08:40:00;;;;;;;1.98;0.75;;;;;;;;;;5106652;28;20023;-80
2022/04/17 08:42:27;;;;;;;0.00;0.00;;;;;;;;;;5098889;28;20027;-80
2022/04/17 08:44:53;;;;;;;0.45;0.38;;;;;;;;;;5080658;28;20408;-80
2022/04/17 08:47:25;;;;;;;0.00;0.00;;;;;;;;;;5097772;28;20024;-80
2022/04/17 08:49:52;;;;;;;0.30;0.30;;;;;;;;;;5097794;28;20092;-82
2022/04/17 08:52:19;;;;;;;1.98;1.20;;;;;;;;;;5099079;28;20024;-80
2022/04/17 08:54:47;;;;;;;3.83;1.35;;;;;;;;;;5081861;28;20032;-81
2022/04/17 08:57:13;;;;;;;0.00;0.00;;;;;;;;;;5094189;28;20027;-81
2022/04/17 08:59:40;;;;;;;0.00;0.00;;;;;;;;;;5102892;28;20063;-81
2022/04/17 09:02:13;;;;;;;0.00;0.00;;;;;;;;;;5100186;28;20031;-81
2022/04/17 09:04:43;;;;;;;0.00;0.00;;;;;;;;;;5101011;28;20027;-82
2022/04/17 09:07:10;;;;;;;0.10;0.10;;;;;;;;;;5103098;28;20027;-81
2022/04/17 09:09:39;;;;;;;0.00;0.00;;;;;;;;;;5086125;28;20047;-81
2022/04/17 09:12:06;;;;;;;0.00;0.00;;;;;;;;;;5104676;28;20032;-80
2022/04/17 09:14:38;;;;;;;0.00;0.00;;;;;;;;;;5085614;28;20609;-81
2022/04/17 09:17:10;;;;;;;8.10;0.70;;;;;;;;;;5106514;28;20039;-80
2022/04/17 09:19:36;;;;;;;0.50;0.30;;;;;;;;;;5099864;28;20615;-80
2022/04/17 09:22:03;;;;;;;0.10;0.10;;;;;;;;;;5083357;28;20558;-80
2022/04/17 09:24:29;;;;;;;0.75;0.35;;;;;;;;;;5085521;28;20488;-81
2022/04/17 09:26:59;;;;;;;0.00;0.00;;;;;;;;;;5080171;28;20333;-80
2022/04/17 09:29:27;;;;;;;1.48;1.35;;;;;;;;;;5075760;28;20119;-81
2022/04/17 09:32:01;;;;;;;2.05;0.70;;;;;;;;;;5103238;28;20035;-80
2022/04/17 09:34:28;;;;;;;0.10;0.00;;;;;;;;;;5086373;28;20031;-80
2022/04/17 09:37:00;;;;;;;0.00;0.00;;;;;;;;;;5085111;28;20040;-81
2022/04/17 09:39:36;;;;;;;0.00;0.00;;;;;;;;;;5098352;28;20062;-80
2022/04/17 09:42:03;;;;;;;0.00;0.00;;;;;;;;;;5103921;28;20531;-81
2022/04/17 09:44:37;;;;;;;0.00;0.00;;;;;;;;;;5101330;28;20111;-81
2022/04/17 09:47:12;;;;;;;0.03;0.03;;;;;;;;;;5100482;28;20032;-80
2022/04/17 09:49:57;;;;;;;0.00;0.00;;;;;;;;;;5094439;28;20070;-81
2022/04/17 09:52:25;;;;;;;0.30;0.30;;;;;;;;;;5091011;28;20100;-81
2022/04/17 09:54:52;;;;;;;0.40;0.20;;;;;;;;;;5097574;28;20085;-82
2022/04/17 09:57:31;;;;;;;0.15;0.15;;;;;;;;;;5080570;28;20123;-82
2022/04/17 09:59:58;;;;;;;0.00;0.00;;;;;;;;;;5102451;28;20039;-81
2022/04/17 10:02:25;;;;;;;0.08;0.08;;;;;;;;;;5100820;28;20072;-81
2022/04/17 10:04:53;;;;;;;2.53;0.57;;;;;;;;;;5098313;28;20032;-81
2022/04/17 10:07:22;;;;;;;0.35;0.35;;;;;;;;;;5095595;28;20313;-80
2022/04/17 10:09:49;;;;;;;0.00;0.00;;;;;;;;;;5078245;28;20032;-83
2022/04/17 10:12:19;;;;;;;0.80;0.30;;;;;;;;;;5094741;28;20297;-82
2022/04/17 10:14:48;;;;;;;0.00;0.00;;;;;;;;;;5095941;28;20020;-80
2022/04/17 10:17:14;;;;;;;0.00;0.00;;;;;;;;;;5099063;28;20787;-79
2022/04/17 10:19:42;;;;;;;2.17;1.20;;;;;;;;;;5098477;28;20035;-80
2022/04/17 10:22:10;;;;;;;3.35;0.85;;;;;;;;;;5098257;28;20115;-80
2022/04/17 10:24:37;;;;;;;0.10;0.10;;;;;;;;;;5104426;28;20460;-82
2022/04/17 10:27:04;;;;;;;5.32;4.85;;;;;;;;;;5098731;28;20471;-81
2022/04/17 10:29:46;;;;;;;1.80;1.70;;;;;;;;;;5080447;28;20382;-81
2022/04/17 10:32:31;;;;;;;0.82;0.52;;;;;;;;;;5102206;28;20615;-81
2022/04/17 10:35:09;;;;;;;0.00;0.00;;;;;;;;;;5099742;28;20043;-80
2022/04/17 10:37:49;;;;;;;0.00;0.00;;;;;;;;;;5085187;28;20074;-81
2022/04/17 10:40:15;;;;;;;1.08;0.63;;;;;;;;;;5107304;28;20120;-81
2022/04/17 10:42:58;;;;;;;0.00;0.00;;;;;;;;;;5082649;28;20062;-81
2022/04/17 10:45:25;;;;;;;0.00;0.00;;;;;;;;;;5098130;28;20028;-81
2022/04/17 10:48:21;;;;;;;7.68;2.47;;;;;;;;;;5080698;28;20656;-81
2022/04/17 10:50:52;;;;;;;1.10;1.10;;;;;;;;;;5084238;28;20364;-81
2022/04/17 10:53:28;;;;;;;0.00;0.00;;;;;;;;;;5102173;28;20134;-81
2022/04/17 10:56:11;;;;;;;0.00;0.00;;;;;;;;;;5100241;28;20061;-82
2022/04/17 10:58:41;;;;;;;0.13;0.10;;;;;;;;;;5103889;28;20175;-80
2022/04/17 11:01:10;;;;;;;1.15;0.25;;;;;;;;;;5101844;28;20076;-80
2022/04/17 11:03:39;;;;;;;0.00;0.00;;;;;;;;;;5084024;28;20080;-82
2022/04/17 11:06:34;;;;;;;0.45;0.17;;;;;;;;;;5102333;28;20032;-80
2022/04/17 11:09:05;;;;;;;0.25;0.25;;;;;;;;;;5099966;28;20023;-81
2022/04/17 11:11:35;;;;;;;1.10;1.10;;;;;;;;;;5081319;28;20020;-81
2022/04/17 11:14:09;;;;;;;0.32;0.17;;;;;;;;;;5103860;28;20826;-81
2022/04/17 11:16:54;;;;;;;0.75;0.65;;;;;;;;;;5080486;28;20364;-80
2022/04/17 11:19:29;;;;;;;1.38;1.35;;;;;;;;;;5080527;28;20024;-81
2022/04/17 11:22:03;;;;;;;0.20;0.20;;;;;;;;;;5101931;28;20565;-80
2022/04/17 11:24:50;;;;;;;0.00;0.00;;;;;;;;;;5101533;28;20432;-81
2022/04/17 11:27:16;;;;;;;0.00;0.00;;;;;;;;;;5101077;28;20030;-81
2022/04/17 11:29:44;;;;;;;0.00;0.00;;;;;;;;;;5086685;28;20028;-79
2022/04/17 11:32:19;;;;;;;0.00;0.00;;;;;;;;;;5099172;28;20027;-79
2022/04/17 11:34:55;;;;;;;0.00;0.00;;;;;;;;;;5097742;28;20365;-81
2022/04/17 11:37:22;;;;;;;0.85;0.85;;;;;;;;;;5104666;28;20115;-81
2022/04/17 11:39:49;;;;;;;0.00;0.00;;;;;;;;;;5097901;28;20107;-81
2022/04/17 11:42:16;;;;;;;0.25;0.25;;;;;;;;;;5096971;28;20045;-83
2022/04/17 11:44:45;;;;;;;0.00;0.00;;;;;;;;;;5079409;28;20131;-80
2022/04/17 11:47:15;;;;;;;0.00;0.00;;;;;;;;;;5100693;28;20031;-80
2022/04/17 11:49:42;;;;;;;0.00;0.00;;;;;;;;;;5095517;28;20019;-81
2022/04/17 11:52:12;;;;;;;0.00;0.00;;;;;;;;;;5099622;28;20028;-80
2022/04/17 11:54:38;;;;;;;0.00;0.00;;;;;;;;;;5102204;28;20517;-80
2022/04/17 11:57:05;;;;;;;0.00;0.00;;;;;;;;;;5074151;28;20063;-79
2022/04/17 12:00:05;;;;;;;0.55;0.55;;;;;;;;;;5097350;28;20177;-80
2022/04/17 12:02:31;;;;;;;1.25;1.25;;;;;;;;;;5038809;28;20035;-81
2022/04/17 12:05:05;;;;;;;0.00;0.00;;;;;;;;;;5099087;28;20028;-79
2022/04/17 12:07:32;;;;;;;0.00;0.00;;;;;;;;;;5087104;28;20398;-82
2022/04/17 12:10:04;;;;;;;0.00;0.00;;;;;;;;;;5096842;28;20151;-82
2022/04/17 12:12:34;;;;;;;0.00;0.00;;;;;;;;;;5100060;28;20043;-80
2022/04/17 12:15:04;;;;;;;0.55;0.55;;;;;;;;;;5107645;28;20030;-80
2022/04/17 12:17:32;;;;;;;0.00;0.00;;;;;;;;;;5100505;28;20034;-80
2022/04/17 12:19:58;;;;;;;0.00;0.00;;;;;;;;;;5102831;28;20471;-80
2022/04/17 12:22:25;;;;;;;0.00;0.00;;;;;;;;;;5097948;28;20076;-80
2022/04/17 12:24:52;;;;;;;0.00;0.00;;;;;;;;;;5100477;28;20174;-80
2022/04/17 12:27:21;;;;;;;0.00;0.00;;;;;;;;;;5075565;28;20247;-80
2022/04/17 12:29:48;;;;;;;0.28;0.28;;;;;;;;;;5102867;28;20020;-80
2022/04/17 12:32:15;;;;;;;0.77;0.50;;;;;;;;;;5102485;28;20424;-80
2022/04/17 12:34:46;;;;;;;0.00;0.00;;;;;;;;;;5099223;28;20027;-80
2022/04/17 12:37:22;;;;;;;0.00;0.00;;;;;;;;;;5101660;28;20028;-80
2022/04/17 12:39:49;;;;;;;0.52;0.52;;;;;;;;;;5095703;28;20024;-80
2022/04/17 12:42:16;;;;;;;0.00;0.00;;;;;;;;;;5100348;28;20377;-81
2022/04/17 12:44:42;;;;;;;0.17;0.17;;;;;;;;;;5086518;28;20034;-79
2022/04/17 12:47:13;;;;;;;0.08;0.08;;;;;;;;;;5084058;28;20050;-81
2022/04/17 12:49:39;;;;;;;0.00;0.00;;;;;;;;;;5082411;28;20088;-82
2022/04/17 12:52:06;;;;;;;0.00;0.00;;;;;;;;;;5094254;28;20541;-81
2022/04/17 12:54:33;;;;;;;0.00;0.00;;;;;;;;;;5090499;28;20054;-81
2022/04/17 12:57:06;;;;;;;0.10;0.10;;;;;;;;;;5080899;28;20102;-80
2022/04/17 12:59:42;;;;;;;0.00;0.00;;;;;;;;;;5098278;28;20040;-80
2022/04/17 13:02:12;;;;;;;19.13;17.98;;;;;;;;;;5110066;28;20124;-80
2022/04/17 13:04:47;;;;;;;0.00;0.00;;;;;;;;;;5083989;28;20028;-80
2022/04/17 13:07:15;;;;;;;0.00;0.00;;;;;;;;;;5081450;28;20420;-82
2022/04/17 13:09:55;;;;;;;0.00;0.00;;;;;;;;;;5079473;28;20666;-82
2022/04/17 13:12:34;;;;;;;0.08;0.08;;;;;;;;;;5094531;28;20079;-81
2022/04/17 13:15:02;;;;;;;0.20;0.20;;;;;;;;;;5078237;28;20036;-81
2022/04/17 13:17:28;;;;;;;0.40;0.40;;;;;;;;;;5108592;28;20378;-81
2022/04/17 13:19:54;;;;;;;0.00;0.00;;;;;;;;;;5105837;28;20382;-81
2022/04/17 13:22:21;;;;;;;0.00;0.00;;;;;;;;;;5108240;28;20537;-81
2022/04/17 13:24:47;;;;;;;0.15;0.13;;;;;;;;;;5087178;28;20028;-80
2022/04/17 13:27:14;;;;;;;0.00;0.00;;;;;;;;;;5105312;28;20077;-80
2022/04/17 13:29:40;;;;;;;0.00;0.00;;;;;;;;;;5106041;28;20120;-82
2022/04/17 13:32:11;;;;;;;20.50;2.38;;;;;;;;;;5081974;28;20077;-81
2022/04/17 13:34:38;;;;;;;0.00;0.00;;;;;;;;;;5100255;28;20031;-82
2022/04/17 13:39:50;;;;;;;0.00;0.00;;;;;;;;;;5123940;28;20038;-80
2022/04/17 13:42:16;;;;;;;0.15;0.15;;;;;;;;;;5118564;28;20036;-80
2022/04/17 13:44:43;;;;;;;0.17;0.17;;;;;;;;;;5113307;28;20031;-81
2022/04/17 13:47:09;;;;;;;0.10;0.10;;;;;;;;;;5109394;28;20494;-80
2022/04/17 13:49:35;;;;;;;0.00;0.00;;;;;;;;;;5111107;28;20090;-84
2022/04/17 13:52:02;;;;;;;0.00;0.00;;;;;;;;;;5103762;28;20016;-80
2022/04/17 13:54:28;;;;;;;0.00;0.00;;;;;;;;;;5109199;28;20289;-80
2022/04/17 13:56:54;;;;;;;0.00;0.00;;;;;;;;;;5099891;28;20032;-80
2022/04/17 13:59:21;;;;;;;0.00;0.00;;;;;;;;;;5099158;28;20559;-80
2022/04/17 14:01:47;;;;;;;0.10;0.10;;;;;;;;;;5115131;28;20028;-79
2022/04/17 14:04:13;;;;;;;0.08;0.08;;;;;;;;;;5108752;28;20036;-80
2022/04/17 14:06:40;;;;;;;0.00;0.00;;;;;;;;;;5095572;28;20034;-79
2022/04/17 14:09:06;;;;;;;0.00;0.00;;;;;;;;;;5108303;28;20032;-79
2022/04/17 14:11:33;;;;;;;0.00;0.00;;;;;;;;;;5110418;28;20015;-80
2022/04/17 14:14:00;;;;;;;0.00;0.00;;;;;;;;;;5106149;28;20505;-79
2022/04/17 14:16:26;;;;;;;0.00;0.00;;;;;;;;;;5112065;28;20425;-80
2022/04/17 14:18:55;;;;;;;0.00;0.00;;;;;;;;;;5111698;28;20081;-80
2022/04/17 14:21:22;;;;;;;0.00;0.00;;;;;;;;;;5106123;28;20422;-80
2022/04/17 14:23:49;;;;;;;0.00;0.00;;;;;;;;;;5095042;28;20576;-80
2022/04/17 14:26:15;;;;;;;2.50;2.40;;;;;;;;;;5111227;28;20091;-79
2022/04/17 14:28:42;;;;;;;0.00;0.00;;;;;;;;;;5111139;28;20028;-81
2022/04/17 14:31:08;;;;;;;0.10;0.10;;;;;;;;;;5106782;28;20016;-80
2022/04/17 14:33:34;;;;;;;0.70;0.70;;;;;;;;;;5108574;28;20108;-80
2022/04/17 14:36:01;;;;;;;0.00;0.00;;;;;;;;;;5110475;28;20040;-80
2022/04/17 14:38:27;;;;;;;0.00;0.00;;;;;;;;;;5105367;28;20485;-80
2022/04/17 14:40:54;;;;;;;0.22;0.22;;;;;;;;;;5104157;28;20059;-81
2022/04/17 14:43:20;;;;;;;0.10;0.10;;;;;;;;;;5106542;28;20019;-81
2022/04/17 14:45:50;;;;;;;0.10;0.10;;;;;;;;;;5112178;28;20072;-80
2022/04/17 14:48:17;;;;;;;0.10;0.10;;;;;;;;;;5106431;28;20073;-80
2022/04/17 14:50:43;;;;;;;17.88;2.92;;;;;;;;;;5112068;28;20026;-80
2022/04/17 14:53:09;;;;;;;0.00;0.00;;;;;;;;;;5085512;28;20448;-81
2022/04/17 14:55:38;;;;;;;15.60;6.82;;;;;;;;;;5100203;28;20018;-81
2022/04/17 14:58:06;;;;;;;0.00;0.00;;;;;;;;;;5100807;28;20543;-80
2022/04/17 15:00:33;;;;;;;0.05;0.05;;;;;;;;;;5095282;28;20032;-82
2022/04/17 15:03:00;;;;;;;0.00;0.00;;;;;;;;;;5098534;28;20016;-80
2022/04/17 15:05:27;;;;;;;0.40;0.40;;;;;;;;;;5079720;28;20028;-80
2022/04/17 15:07:53;;;;;;;0.20;0.20;;;;;;;;;;5093854;28;20026;-81
2022/04/17 15:10:19;;;;;;;0.00;0.00;;;;;;;;;;5108189;28;20162;-80